createdAt,value
2022-08-18T00:00:20.051Z,6.55
2022-08-18T00:04:34.973Z,6.95
2022-08-18T00:08:08.622Z,6.55
2022-08-18T00:11:51.412Z,6.35
2022-08-18T00:15:41.623Z,6.55
2022-08-18T00:19:45.674Z,6.80
2022-08-18T00:23:32.659Z,6.65
2022-08-18T00:27:15.810Z,6.20
2022-08-18T00:30:58.535Z,6.05
2022-08-18T00:34:41.303Z,5.95
2022-08-18T00:38:25.345Z,5.60
2022-08-18T00:42:28.919Z,5.55
2022-08-18T00:46:16.825Z,5.78
2022-08-18T00:49:59.743Z,5.97
2022-08-18T00:53:45.929Z,6.28
2022-08-18T00:57:32.354Z,5.78
2022-08-18T01:01:16.265Z,6.22
2022-08-18T01:05:01.861Z,5.60
2022-08-18T01:08:44.934Z,5.65
2022-08-18T01:12:45.858Z,6.00
2022-08-18T01:16:53.832Z,5.70
2022-08-18T01:21:02.105Z,6.13
2022-08-18T01:25:03.664Z,5.38
2022-08-18T01:28:49.489Z,6.20
2022-08-18T01:32:32.281Z,5.50
2022-08-18T01:36:17.702Z,6.05
2022-08-18T01:41:17.456Z,5.72
2022-08-18T01:44:11.726Z,5.95
2022-08-18T01:47:55.859Z,5.75
2022-08-18T01:51:41.445Z,5.38
2022-08-18T01:55:28.350Z,6.10
2022-08-18T01:59:14.585Z,6.40
2022-08-18T02:03:02.141Z,6.03
2022-08-18T02:06:47.771Z,5.68
2022-08-18T02:10:32.993Z,5.57
2022-08-18T02:14:15.759Z,5.85
2022-08-18T02:17:58.638Z,6.03
2022-08-18T02:21:41.391Z,6.03
2022-08-18T02:25:24.225Z,5.82
2022-08-18T02:29:09.585Z,5.43
2022-08-18T02:32:52.349Z,5.55
2022-08-18T02:36:35.097Z,5.70
2022-08-18T02:40:19.112Z,6.00
2022-08-18T02:44:02.019Z,5.60
2022-08-18T02:47:46.831Z,6.20
2022-08-18T02:51:29.592Z,5.53
2022-08-18T02:55:12.913Z,5.47
2022-08-18T02:59:00.923Z,5.95
2022-08-18T03:02:48.100Z,5.70
2022-08-18T03:06:31.588Z,5.57
2022-08-18T03:10:32.867Z,5.68
2022-08-18T03:14:17.122Z,5.93
2022-08-18T03:18:02.423Z,5.88
2022-08-18T03:21:46.720Z,6.20
2022-08-18T03:25:29.517Z,5.68
2022-08-18T03:29:13.092Z,5.25
2022-08-18T03:32:55.853Z,5.40
2022-08-18T03:36:40.361Z,5.35
2022-08-18T03:40:23.198Z,5.55
2022-08-18T03:44:06.558Z,5.82
2022-08-18T03:47:52.549Z,5.50
2022-08-18T03:51:35.404Z,5.25
2022-08-18T03:55:19.637Z,5.30
2022-08-18T03:59:04.890Z,5.10
2022-08-18T04:02:47.689Z,5.53
2022-08-18T04:06:32.482Z,5.60
2022-08-18T04:10:19.510Z,5.63
2022-08-18T04:14:04.058Z,6.20
2022-08-18T04:17:55.969Z,5.57
2022-08-18T04:21:46.573Z,6.03
2022-08-18T04:25:32.897Z,5.20
2022-08-18T04:29:21.097Z,5.47
2022-08-18T04:33:06.339Z,5.00
2022-08-18T04:36:49.293Z,5.72
2022-08-18T04:40:33.989Z,5.95
2022-08-18T04:44:18.330Z,5.68
2022-08-18T04:48:01.275Z,5.53
2022-08-18T04:52:34.400Z,5.65
2022-08-18T04:56:15.534Z,5.13
2022-08-18T05:00:05.136Z,6.03
2022-08-18T05:03:50.006Z,5.50
2022-08-18T05:07:33.854Z,5.55
2022-08-18T05:11:17.010Z,6.25
2022-08-18T05:14:59.765Z,5.70
2022-08-18T05:18:43.891Z,6.43
2022-08-18T05:22:30.705Z,5.05
2022-08-18T05:26:14.897Z,5.50
2022-08-18T05:29:57.675Z,5.38
2022-08-18T05:33:41.196Z,5.40
2022-08-18T05:37:28.787Z,5.32
2022-08-18T05:41:25.776Z,5.22
2022-08-18T05:45:11.774Z,4.95
2022-08-18T05:48:54.535Z,6.45
2022-08-18T05:52:42.170Z,6.35
2022-08-18T05:56:47.282Z,5.60
2022-08-18T06:00:31.120Z,5.30
2022-08-18T06:04:20.718Z,6.72
2022-08-18T06:08:09.389Z,8.07
2022-08-18T06:12:08.978Z,4.90
2022-08-18T06:15:56.386Z,5.30
2022-08-18T06:19:46.708Z,4.60
2022-08-18T06:23:37.356Z,6.05
2022-08-18T06:27:26.978Z,5.00
2022-08-18T06:31:18.324Z,4.65
2022-08-18T06:35:11.870Z,5.50
2022-08-18T06:39:04.909Z,5.22
2022-08-18T06:42:48.059Z,5.45
2022-08-18T06:46:36.667Z,5.57
2022-08-18T06:50:22.534Z,5.55
2022-08-18T06:54:08.203Z,5.25
2022-08-18T06:57:55.775Z,5.55
2022-08-18T07:01:42.182Z,5.88
2022-08-18T07:05:27.573Z,5.80
2022-08-18T07:09:24.103Z,6.07
2022-08-18T07:13:18.881Z,6.55
2022-08-18T07:17:09.728Z,6.40
2022-08-18T07:20:54.721Z,6.57
2022-08-18T07:24:41.891Z,6.88
2022-08-18T07:28:33.737Z,6.43
2022-08-18T07:32:21.599Z,7.03
2022-08-18T07:36:07.152Z,6.55
2022-08-18T07:39:56.438Z,7.10
2022-08-18T07:43:44.182Z,6.13
2022-08-18T07:47:29.116Z,6.30
2022-08-18T07:51:17.353Z,6.85
2022-08-18T07:55:07.678Z,6.85
2022-08-18T07:58:58.542Z,6.35
2022-08-18T08:02:50.131Z,7.10
2022-08-18T08:06:55.403Z,7.47
2022-08-18T08:10:52.765Z,6.32
2022-08-18T08:14:45.254Z,6.65
2022-08-18T08:18:36.498Z,7.05
2022-08-18T08:22:22.542Z,6.30
2022-08-18T08:26:25.125Z,6.57
2022-08-18T08:30:11.226Z,6.07
2022-08-18T08:34:03.952Z,6.35
2022-08-18T08:37:53.447Z,5.88
2022-08-18T08:41:45.611Z,7.30
2022-08-18T08:45:32.089Z,6.82
2022-08-18T08:49:24.974Z,7.25
2022-08-18T08:53:11.688Z,7.53
2022-08-18T08:56:57.917Z,6.82
2022-08-18T09:00:41.474Z,7.53
2022-08-18T09:04:32.271Z,6.13
2022-08-18T09:08:34.409Z,6.65
2022-08-18T09:12:43.405Z,6.45
2022-08-18T09:16:38.817Z,6.45
2022-08-18T09:20:54.785Z,5.90
2022-08-18T09:24:41.774Z,6.15
2022-08-18T09:28:56.255Z,5.63
2022-08-18T09:32:50.148Z,6.57
2022-08-18T09:36:43.377Z,6.00
2022-08-18T09:41:02.329Z,6.40
2022-08-18T09:45:04.245Z,6.28
2022-08-18T09:48:47.043Z,6.90
2022-08-18T09:52:58.900Z,6.38
2022-08-18T09:57:20.664Z,6.38
2022-08-18T10:01:22.716Z,6.65
2022-08-18T10:05:27.758Z,6.03
2022-08-18T10:17:55.977Z,7.47
2022-08-18T10:22:06.363Z,6.15
2022-08-18T10:25:49.375Z,5.85
2022-08-18T10:29:59.589Z,7.78
2022-08-18T10:34:19.393Z,6.32
2022-08-18T10:38:03.688Z,7.00
2022-08-18T10:41:58.071Z,5.70
2022-08-18T10:46:05.924Z,6.22
2022-08-18T10:49:51.534Z,6.82
2022-08-18T10:53:43.995Z,6.15
2022-08-18T10:57:34.310Z,7.32
2022-08-18T11:01:30.835Z,6.22
2022-08-18T11:05:21.699Z,6.35
2022-08-18T11:09:04.538Z,6.75
2022-08-18T11:13:07.729Z,6.40
2022-08-18T11:17:01.396Z,5.85
2022-08-18T11:20:47.532Z,5.90
2022-08-18T11:24:33.985Z,6.15
2022-08-18T11:28:18.745Z,6.20
2022-08-18T11:32:11.000Z,7.40
2022-08-18T11:35:58.449Z,6.40
2022-08-18T11:39:50.392Z,6.47
2022-08-18T11:43:40.838Z,6.90
2022-08-18T11:47:27.544Z,6.10
2022-08-18T11:51:23.471Z,5.68
2022-08-18T11:55:24.483Z,6.13
2022-08-18T11:59:09.464Z,6.20
2022-08-18T12:03:02.675Z,6.05
2022-08-18T12:07:04.529Z,5.68
2022-08-18T12:10:48.367Z,5.78
2022-08-18T12:14:36.795Z,6.03
2022-08-18T12:18:28.493Z,6.05
2022-08-18T12:22:18.612Z,6.00
2022-08-18T12:26:01.446Z,5.70
2022-08-18T12:29:44.705Z,5.47
2022-08-18T12:33:34.459Z,5.53
2022-08-18T12:37:58.383Z,6.28
2022-08-18T12:41:34.534Z,5.75
2022-08-18T12:45:17.577Z,6.00
2022-08-18T12:49:00.490Z,6.30
2022-08-18T12:52:49.601Z,6.07
2022-08-18T12:56:33.035Z,6.07
2022-08-18T13:00:18.876Z,6.25
2022-08-18T13:04:11.099Z,5.88
2022-08-18T13:07:56.435Z,6.25
2022-08-18T13:11:40.949Z,6.28
2022-08-18T13:15:26.136Z,5.93
2022-08-18T13:19:12.561Z,5.70
2022-08-18T13:22:56.798Z,5.45
2022-08-18T13:26:42.165Z,5.38
2022-08-18T13:30:30.816Z,6.25
2022-08-18T13:34:19.137Z,6.88
2022-08-18T13:38:12.482Z,5.70
2022-08-18T13:42:00.997Z,5.70
2022-08-18T13:46:04.158Z,5.15
2022-08-18T13:49:58.024Z,5.13
2022-08-18T13:53:58.878Z,5.95
2022-08-18T13:57:49.611Z,5.35
2022-08-18T14:01:44.433Z,5.60
2022-08-18T14:05:36.438Z,6.57
2022-08-18T14:09:38.272Z,6.07
2022-08-18T14:13:24.680Z,5.70
2022-08-18T14:17:08.058Z,6.43
2022-08-18T14:21:10.516Z,6.18
2022-08-18T14:25:14.346Z,6.30
2022-08-18T14:28:57.233Z,6.13
2022-08-18T14:32:48.948Z,6.57
2022-08-18T14:36:32.289Z,6.00
2022-08-18T14:40:20.073Z,6.53
2022-08-18T14:44:12.694Z,6.38
2022-08-18T14:47:56.863Z,6.75
2022-08-18T14:51:42.866Z,6.47
2022-08-18T14:55:27.004Z,6.43
2022-08-18T14:59:09.921Z,6.32
2022-08-18T15:02:52.714Z,6.32
2022-08-18T15:06:35.702Z,6.65
2022-08-18T15:10:19.958Z,7.40
2022-08-18T15:14:08.013Z,6.65
2022-08-18T15:17:52.520Z,6.28
2022-08-18T15:21:53.646Z,6.93
2022-08-18T15:25:45.906Z,6.60
2022-08-18T15:29:30.367Z,6.25
2022-08-18T15:33:14.311Z,6.22
2022-08-18T15:36:57.999Z,6.05
2022-08-18T15:40:57.290Z,7.20
2022-08-18T15:44:41.754Z,7.03
2022-08-18T15:48:29.505Z,7.07
2022-08-18T15:52:13.263Z,6.45
2022-08-18T15:56:04.320Z,6.88
2022-08-18T15:59:49.183Z,6.90
2022-08-18T16:03:33.536Z,7.10
2022-08-18T16:07:17.800Z,6.85
2022-08-18T16:11:08.389Z,6.40
2022-08-18T16:14:53.188Z,6.90
2022-08-18T16:18:35.919Z,6.43
2022-08-18T16:22:18.717Z,6.30
2022-08-18T16:26:04.883Z,6.20
2022-08-18T16:29:48.136Z,6.20
2022-08-18T16:33:32.303Z,6.60
2022-08-18T16:41:07.788Z,7.22
2022-08-18T16:44:51.615Z,6.85
2022-08-18T16:48:35.831Z,7.20
2022-08-18T16:52:19.668Z,7.05
2022-08-18T16:56:02.438Z,7.32
2022-08-18T17:00:02.785Z,7.50
2022-08-18T17:04:04.479Z,7.55
2022-08-18T17:07:56.472Z,8.45
2022-08-18T17:11:51.777Z,8.07
2022-08-18T17:15:35.225Z,8.10
2022-08-18T17:19:20.016Z,8.90
2022-08-18T17:23:03.275Z,5.95
2022-08-18T17:26:49.851Z,4.53
2022-08-18T17:30:37.227Z,3.40
2022-08-18T17:34:24.594Z,3.90
2022-08-18T17:38:13.978Z,3.42
2022-08-18T17:42:28.869Z,4.80
2022-08-18T17:46:17.738Z,5.80
2022-08-18T17:50:27.137Z,7.70
2022-08-18T17:54:19.080Z,10.00
2022-08-18T17:58:05.860Z,10.48
2022-08-18T18:02:09.115Z,7.32
2022-08-18T18:06:16.416Z,5.25
2022-08-18T18:10:05.972Z,4.10
2022-08-18T18:13:48.694Z,2.83
2022-08-18T18:17:37.508Z,2.47
2022-08-18T18:21:24.062Z,2.22
2022-08-18T18:25:34.779Z,1.95
2022-08-18T18:29:20.739Z,1.80
2022-08-18T18:33:08.117Z,1.50
2022-08-18T18:36:52.963Z,1.70
2022-08-18T18:40:37.848Z,1.80
2022-08-18T18:44:27.983Z,1.90
2022-08-18T18:48:45.077Z,1.83
2022-08-18T18:52:25.463Z,1.85
2022-08-18T18:56:19.952Z,2.17
2022-08-18T19:00:14.332Z,2.03
2022-08-18T19:04:05.024Z,4.05
2022-08-18T19:08:01.013Z,1.98
2022-08-18T19:11:56.492Z,3.00
2022-08-18T19:15:40.683Z,2.13
2022-08-18T19:19:37.138Z,2.03
2022-08-18T19:23:34.134Z,1.80
2022-08-18T19:27:34.187Z,2.13
2022-08-18T19:31:23.144Z,1.75
2022-08-18T19:35:12.431Z,1.90
2022-08-18T19:39:02.178Z,1.67
2022-08-18T19:42:53.158Z,1.90
2022-08-18T19:46:44.131Z,1.50
2022-08-18T19:50:32.652Z,1.50
2022-08-18T19:54:33.953Z,1.30
2022-08-18T19:58:29.809Z,1.27
2022-08-18T20:02:25.308Z,1.80
2022-08-18T20:06:34.226Z,2.38
2022-08-18T20:10:42.771Z,1.77
2022-08-18T20:14:25.670Z,3.35
2022-08-18T20:18:21.370Z,3.70
2022-08-18T20:22:05.905Z,5.40
2022-08-18T20:25:50.179Z,5.30
2022-08-18T20:29:46.231Z,7.13
2022-08-18T20:33:33.600Z,7.97
2022-08-18T20:37:25.464Z,8.63
2022-08-18T20:41:42.323Z,10.32
2022-08-18T20:45:29.349Z,11.02
2022-08-18T20:49:18.513Z,11.73
2022-08-18T20:53:08.487Z,12.13
2022-08-18T20:56:55.033Z,13.13
2022-08-18T21:00:41.746Z,13.57
2022-08-18T21:04:37.356Z,13.18
2022-08-18T21:08:27.734Z,13.68
2022-08-18T21:12:14.623Z,13.18
2022-08-18T21:15:57.597Z,12.38
2022-08-18T21:19:43.419Z,12.35
2022-08-18T21:23:30.587Z,12.57
2022-08-18T21:27:23.353Z,12.43
2022-08-18T21:31:42.838Z,13.02
2022-08-18T21:35:22.594Z,11.73
2022-08-18T21:39:10.537Z,12.00
2022-08-18T21:42:54.928Z,12.32
2022-08-18T21:46:37.739Z,12.68
2022-08-18T21:50:23.309Z,13.10
2022-08-18T21:54:06.200Z,13.60
2022-08-18T21:57:52.851Z,12.82
2022-08-18T22:01:38.304Z,13.63
2022-08-18T22:05:30.097Z,13.05
2022-08-18T22:09:53.055Z,16.92
2022-08-18T22:14:00.135Z,24.38
2022-08-18T22:17:54.477Z,13.20
2022-08-18T22:21:38.416Z,14.60
2022-08-18T22:25:22.209Z,13.20
2022-08-18T22:29:14.251Z,10.20
2022-08-18T22:32:58.336Z,9.47
2022-08-18T22:36:47.164Z,8.87
2022-08-18T22:40:29.943Z,8.43
2022-08-18T22:44:12.753Z,8.60
2022-08-18T22:47:55.598Z,7.90
2022-08-18T22:51:40.251Z,8.15
2022-08-18T22:55:24.168Z,6.93
2022-08-18T22:59:15.620Z,7.30
2022-08-18T23:03:00.165Z,5.70
2022-08-18T23:06:51.024Z,5.60
2022-08-18T23:10:33.768Z,4.95
2022-08-18T23:14:16.942Z,4.70
2022-08-18T23:17:59.716Z,4.70
2022-08-18T23:21:44.529Z,4.03
2022-08-18T23:25:27.601Z,4.00
2022-08-18T23:29:11.724Z,4.60
2022-08-18T23:32:54.995Z,4.30
2022-08-18T23:36:45.149Z,4.13
2022-08-18T23:40:30.648Z,4.10
2022-08-18T23:44:13.805Z,4.20
2022-08-18T23:47:58.418Z,4.57
2022-08-18T23:51:44.229Z,3.90
2022-08-18T23:55:26.959Z,4.20
2022-08-18T23:59:11.369Z,4.13
